sensor_id;sensor_type;location;lat;lon;timestamp;pressure;altitude;pressure_sealevel;temperature;humidity
68199;BME280;55021;51.554;17.044;2023-03-22T00:01:55;100392.78;;;11.83;76.41
68199;BME280;55021;51.554;17.044;2023-03-22T00:16:58;100379.81;;;12.02;74.92
68199;BME280;55021;51.554;17.044;2023-03-22T00:32:00;100364.66;;;11.92;75.54
68199;BME280;55021;51.554;17.044;2023-03-22T00:47:03;100344.00;;;11.83;75.66
68199;BME280;55021;51.554;17.044;2023-03-22T01:02:05;100296.88;;;11.34;76.85
68199;BME280;55021;51.554;17.044;2023-03-22T01:17:09;100308.56;;;11.84;75.10
68199;BME280;55021;51.554;17.044;2023-03-22T01:32:11;100243.47;;;11.52;75.31
68199;BME280;55021;51.554;17.044;2023-03-22T01:47:14;100239.56;;;11.54;76.09
68199;BME280;55021;51.554;17.044;2023-03-22T02:02:17;100272.00;;;11.88;75.82
68199;BME280;55021;51.554;17.044;2023-03-22T02:17:27;100275.03;;;11.85;76.13
68199;BME280;55021;51.554;17.044;2023-03-22T02:32:50;100270.28;;;11.87;76.24
68199;BME280;55021;51.554;17.044;2023-03-22T02:47:58;100267.06;;;11.84;76.55
68199;BME280;55021;51.554;17.044;2023-03-22T03:03:07;100280.59;;;11.76;76.82
68199;BME280;55021;51.554;17.044;2023-03-22T03:18:26;100280.25;;;11.21;80.54
68199;BME280;55021;51.554;17.044;2023-03-22T03:33:37;100295.28;;;11.57;79.50
68199;BME280;55021;51.554;17.044;2023-03-22T03:48:47;100299.81;;;11.48;80.97
68199;BME280;55021;51.554;17.044;2023-03-22T04:03:50;100290.63;;;11.33;83.02
68199;BME280;55021;51.554;17.044;2023-03-22T04:18:53;100238.53;;;10.97;83.88
68199;BME280;55021;51.554;17.044;2023-03-22T04:33:55;100266.56;;;11.22;84.04
68199;BME280;55021;51.554;17.044;2023-03-22T04:48:58;100288.84;;;11.16;83.99
68199;BME280;55021;51.554;17.044;2023-03-22T05:04:01;100265.66;;;11.14;84.64
68199;BME280;55021;51.554;17.044;2023-03-22T05:19:03;100260.78;;;11.17;84.85
68199;BME280;55021;51.554;17.044;2023-03-22T05:34:05;100251.19;;;11.31;84.76
68199;BME280;55021;51.554;17.044;2023-03-22T05:49:08;100265.81;;;11.54;84.17
68199;BME280;55021;51.554;17.044;2023-03-22T06:04:10;100266.41;;;11.90;82.70
68199;BME280;55021;51.554;17.044;2023-03-22T06:19:13;100245.28;;;11.43;83.88
68199;BME280;55021;51.554;17.044;2023-03-22T06:34:15;100256.13;;;12.01;83.21
68199;BME280;55021;51.554;17.044;2023-03-22T06:49:17;100266.22;;;13.43;79.98
68199;BME280;55021;51.554;17.044;2023-03-22T07:04:20;100298.91;;;13.66;78.80
68199;BME280;55021;51.554;17.044;2023-03-22T07:19:22;100252.81;;;12.95;80.91
68199;BME280;55021;51.554;17.044;2023-03-22T07:34:25;100250.84;;;14.49;76.07
68199;BME280;55021;51.554;17.044;2023-03-22T07:49:27;100259.69;;;15.03;73.35
68199;BME280;55021;51.554;17.044;2023-03-22T08:04:29;100250.75;;;15.09;73.63
68199;BME280;55021;51.554;17.044;2023-03-22T08:19:32;100279.78;;;14.05;77.82
68199;BME280;55021;51.554;17.044;2023-03-22T08:34:37;100265.75;;;14.76;74.64
68199;BME280;55021;51.554;17.044;2023-03-22T08:49:39;100235.94;;;14.97;75.04
68199;BME280;55021;51.554;17.044;2023-03-22T09:04:42;100204.00;;;14.62;71.55
68199;BME280;55021;51.554;17.044;2023-03-22T09:19:44;100229.38;;;16.35;65.61
68199;BME280;55021;51.554;17.044;2023-03-22T09:34:47;100225.94;;;16.26;62.81
68199;BME280;55021;51.554;17.044;2023-03-22T09:49:55;100219.69;;;15.54;63.04
68199;BME280;55021;51.554;17.044;2023-03-22T10:05:11;100187.81;;;15.54;62.17
68199;BME280;55021;51.554;17.044;2023-03-22T10:20:26;100199.22;;;16.21;58.14
68199;BME280;55021;51.554;17.044;2023-03-22T10:35:31;100182.66;;;16.51;56.43
68199;BME280;55021;51.554;17.044;2023-03-22T10:50:36;100182.63;;;16.44;57.20
68199;BME280;55021;51.554;17.044;2023-03-22T11:05:39;100174.41;;;17.06;57.33
68199;BME280;55021;51.554;17.044;2023-03-22T11:20:52;100124.19;;;16.39;55.37
68199;BME280;55021;51.554;17.044;2023-03-22T11:35:58;100113.66;;;17.04;54.68
68199;BME280;55021;51.554;17.044;2023-03-22T11:51:07;100111.50;;;17.54;53.55
68199;BME280;55021;51.554;17.044;2023-03-22T12:06:19;100111.31;;;18.60;51.78
68199;BME280;55021;51.554;17.044;2023-03-22T12:21:22;100097.03;;;17.86;52.25
68199;BME280;55021;51.554;17.044;2023-03-22T12:36:30;100079.00;;;18.82;49.60
68199;BME280;55021;51.554;17.044;2023-03-22T12:51:35;100075.56;;;18.02;51.73
68199;BME280;55021;51.554;17.044;2023-03-22T13:06:57;100049.44;;;18.06;51.49
68199;BME280;55021;51.554;17.044;2023-03-22T13:22:20;100044.81;;;19.29;46.63
68199;BME280;55021;51.554;17.044;2023-03-22T13:37:31;100040.75;;;18.36;48.96
68199;BME280;55021;51.554;17.044;2023-03-22T13:52:37;100016.50;;;18.97;48.51
68199;BME280;55021;51.554;17.044;2023-03-22T14:07:44;99994.47;;;19.16;48.92
68199;BME280;55021;51.554;17.044;2023-03-22T14:22:52;99980.09;;;19.77;46.24
68199;BME280;55021;51.554;17.044;2023-03-22T14:38:00;99965.03;;;19.86;46.18
68199;BME280;55021;51.554;17.044;2023-03-22T14:53:03;99917.25;;;19.69;46.23
68199;BME280;55021;51.554;17.044;2023-03-22T15:08:09;99952.06;;;20.48;45.56
68199;BME280;55021;51.554;17.044;2023-03-22T15:23:16;99939.84;;;19.64;46.27
68199;BME280;55021;51.554;17.044;2023-03-22T15:38:28;99911.78;;;19.62;46.60
68199;BME280;55021;51.554;17.044;2023-03-22T15:53:34;99912.13;;;18.98;48.55
68199;BME280;55021;51.554;17.044;2023-03-22T16:08:37;99909.38;;;18.60;48.58
68199;BME280;55021;51.554;17.044;2023-03-22T16:23:40;99902.72;;;18.88;48.51
68199;BME280;55021;51.554;17.044;2023-03-22T16:38:43;99899.94;;;18.50;49.54
68199;BME280;55021;51.554;17.044;2023-03-22T16:53:46;99903.56;;;17.86;51.09
68199;BME280;55021;51.554;17.044;2023-03-22T17:08:49;99894.78;;;16.93;53.09
68199;BME280;55021;51.554;17.044;2023-03-22T17:23:51;99902.78;;;16.27;55.55
68199;BME280;55021;51.554;17.044;2023-03-22T17:38:54;99898.28;;;15.44;57.70
68199;BME280;55021;51.554;17.044;2023-03-22T17:53:57;99858.97;;;14.55;60.80
68199;BME280;55021;51.554;17.044;2023-03-22T18:09:00;99886.66;;;14.23;62.78
68199;BME280;55021;51.554;17.044;2023-03-22T18:24:02;99902.63;;;13.82;63.62
68199;BME280;55021;51.554;17.044;2023-03-22T18:39:05;99896.31;;;13.23;65.22
68199;BME280;55021;51.554;17.044;2023-03-22T18:54:07;99898.84;;;12.65;68.18
68199;BME280;55021;51.554;17.044;2023-03-22T19:09:10;99863.78;;;12.33;67.92
68199;BME280;55021;51.554;17.044;2023-03-22T19:24:12;99865.66;;;12.32;68.26
68199;BME280;55021;51.554;17.044;2023-03-22T19:39:14;99898.25;;;12.77;67.96
68199;BME280;55021;51.554;17.044;2023-03-22T19:54:18;99888.41;;;12.76;67.37
68199;BME280;55021;51.554;17.044;2023-03-22T20:09:21;99882.03;;;12.69;66.75
68199;BME280;55021;51.554;17.044;2023-03-22T20:24:24;99898.91;;;12.79;66.66
68199;BME280;55021;51.554;17.044;2023-03-22T20:39:26;99909.69;;;13.10;64.55
68199;BME280;55021;51.554;17.044;2023-03-22T20:54:28;99901.81;;;13.15;64.09
68199;BME280;55021;51.554;17.044;2023-03-22T21:09:31;99904.75;;;12.91;63.95
68199;BME280;55021;51.554;17.044;2023-03-22T21:24:33;99929.09;;;13.36;62.36
68199;BME280;55021;51.554;17.044;2023-03-22T21:39:36;99877.38;;;12.55;63.78
68199;BME280;55021;51.554;17.044;2023-03-22T21:54:38;99931.94;;;12.60;63.92
68199;BME280;55021;51.554;17.044;2023-03-22T22:09:41;99878.84;;;10.38;72.78
68199;BME280;55021;51.554;17.044;2023-03-22T22:24:44;99901.06;;;11.53;70.72
68199;BME280;55021;51.554;17.044;2023-03-22T22:39:46;99938.72;;;12.87;66.19
68199;BME280;55021;51.554;17.044;2023-03-22T22:54:50;99907.16;;;12.41;67.24
68199;BME280;55021;51.554;17.044;2023-03-22T23:09:53;99941.59;;;12.32;68.74
68199;BME280;55021;51.554;17.044;2023-03-22T23:24:56;99927.00;;;12.41;67.15
68199;BME280;55021;51.554;17.044;2023-03-22T23:40:01;99929.28;;;12.22;66.24
68199;BME280;55021;51.554;17.044;2023-03-22T23:55:04;99911.28;;;12.59;62.92
